Time;durP1;ratioP1;P1;durP2;ratioP2;P2;SDS_P1;SDS_P2;PMS_P1;PMS_P2;Temp;Humidity;BMP_temperature;BMP_pressure;BME280_temperature;BME280_humidity;BME280_pressure;Samples;Min_cycle;Max_cycle;Signal;HPM_P1;HPM_P2
2022/03/30 00:00:46;;;;;;;;;51.75;41.50;;;;;;;;5075542;27;45326;-82
2022/03/30 00:03:12;;;;;;;;;54.50;46.00;;;;;;;;5062742;28;46260;-83
2022/03/30 00:05:38;;;;;;;;;53.75;43.25;;;;;;;;5075347;27;45518;-83
2022/03/30 00:08:03;;;;;;;;;61.25;46.50;;;;;;;;5075436;27;45490;-83
2022/03/30 00:10:29;;;;;;;;;54.50;43.75;;;;;;;;5068227;27;45398;-82
2022/03/30 00:12:56;;;;;;;;;46.25;38.00;;;;;;;;5061852;28;46018;-82
2022/03/30 00:15:21;;;;;;;;;50.75;39.25;;;;;;;;5075028;27;45571;-82
2022/03/30 00:17:47;;;;;;;;;51.00;37.50;;;;;;;;5062061;27;45706;-83
2022/03/30 00:20:12;;;;;;;;;58.50;44.25;;;;;;;;5072230;28;45323;-82
2022/03/30 00:22:40;;;;;;;;;56.75;45.50;;;;;;;;5074851;27;46875;-82
2022/03/30 00:25:09;;;;;;;;;56.25;43.75;;;;;;;;5074161;27;45286;-83
2022/03/30 00:27:34;;;;;;;;;54.00;42.50;;;;;;;;5059496;28;45425;-83
2022/03/30 00:29:59;;;;;;;;;53.25;43.25;;;;;;;;5071288;28;45275;-83
2022/03/30 00:32:25;;;;;;;;;53.00;40.50;;;;;;;;5074500;27;45502;-83
2022/03/30 00:34:50;;;;;;;;;50.50;41.50;;;;;;;;5067448;28;45401;-83
2022/03/30 00:37:15;;;;;;;;;56.00;44.50;;;;;;;;5074358;27;45440;-83
2022/03/30 00:39:40;;;;;;;;;53.50;41.75;;;;;;;;5074777;28;45454;-82
2022/03/30 00:42:15;;;;;;;;;48.50;40.75;;;;;;;;5057976;27;47068;-83
2022/03/30 00:44:41;;;;;;;;;53.00;42.25;;;;;;;;5075199;27;45336;-83
2022/03/30 00:47:14;;;;;;;;;53.75;43.25;;;;;;;;5074077;27;45447;-84
2022/03/30 00:49:39;;;;;;;;;54.75;44.00;;;;;;;;5074335;27;45950;-83
2022/03/30 00:52:04;;;;;;;;;55.25;45.00;;;;;;;;5073604;27;45483;-84
2022/03/30 00:54:29;;;;;;;;;55.25;44.50;;;;;;;;5068432;28;45473;-83
2022/03/30 00:56:55;;;;;;;;;56.00;44.00;;;;;;;;5075397;28;45404;-84
2022/03/30 00:59:20;;;;;;;;;58.50;46.00;;;;;;;;5073728;28;45383;-84
2022/03/30 01:01:45;;;;;;;;;60.00;47.00;;;;;;;;5073704;28;46421;-83
2022/03/30 01:04:10;;;;;;;;;62.00;46.75;;;;;;;;5075149;28;45470;-83
2022/03/30 01:06:36;;;;;;;;;54.25;45.25;;;;;;;;5079293;28;45815;-83
2022/03/30 01:09:01;;;;;;;;;60.75;48.00;;;;;;;;5079064;27;45516;-83
2022/03/30 01:11:28;;;;;;;;;62.50;46.75;;;;;;;;5073751;27;46042;-84
2022/03/30 01:13:53;;;;;;;;;57.00;46.75;;;;;;;;5074247;27;45438;-83
2022/03/30 01:16:20;;;;;;;;;55.25;45.00;;;;;;;;5074022;28;45959;-84
2022/03/30 01:18:46;;;;;;;;;59.00;46.75;;;;;;;;5074626;28;45569;-84
2022/03/30 01:21:11;;;;;;;;;61.25;48.25;;;;;;;;5066925;28;46399;-83
2022/03/30 01:23:36;;;;;;;;;57.75;46.75;;;;;;;;5073578;28;45290;-84
2022/03/30 01:26:05;;;;;;;;;61.75;47.00;;;;;;;;5074071;28;45591;-83
2022/03/30 01:28:31;;;;;;;;;59.50;48.00;;;;;;;;5077079;27;45341;-83
2022/03/30 01:33:48;;;;;;;;;57.00;45.00;;;;;;;;5063725;28;45474;-83
2022/03/30 01:36:15;;;;;;;;;60.50;47.25;;;;;;;;5077528;27;45339;-83
2022/03/30 01:38:42;;;;;;;;;61.25;48.75;;;;;;;;5077991;27;45365;-84
2022/03/30 01:41:08;;;;;;;;;59.50;46.50;;;;;;;;5071615;28;46905;-84
2022/03/30 01:43:33;;;;;;;;;61.00;46.25;;;;;;;;5069517;28;45541;-83
2022/03/30 01:45:58;;;;;;;;;36.50;30.00;;;;;;;;5077353;27;45445;-84
2022/03/30 01:48:24;;;;;;;;;59.50;47.75;;;;;;;;5061486;28;45418;-84
2022/03/30 01:50:49;;;;;;;;;58.75;47.00;;;;;;;;5076790;27;46324;-84
2022/03/30 01:53:15;;;;;;;;;57.00;46.00;;;;;;;;5067503;27;45266;-84
2022/03/30 01:55:40;;;;;;;;;65.50;50.25;;;;;;;;5069830;28;45610;-86
2022/03/30 01:58:05;;;;;;;;;63.00;49.25;;;;;;;;5077551;27;45546;-84
2022/03/30 02:00:31;;;;;;;;;60.00;47.50;;;;;;;;5060881;28;45480;-83
2022/03/30 02:02:56;;;;;;;;;58.00;47.75;;;;;;;;5069400;28;45319;-83
2022/03/30 02:05:21;;;;;;;;;58.25;47.00;;;;;;;;5076099;27;45630;-84
2022/03/30 02:07:46;;;;;;;;;60.50;46.00;;;;;;;;5077067;28;45398;-83
2022/03/30 02:10:12;;;;;;;;;63.25;49.25;;;;;;;;5073962;28;46895;-83
2022/03/30 02:12:37;;;;;;;;;60.00;45.75;;;;;;;;5061106;28;45449;-83
2022/03/30 02:15:03;;;;;;;;;56.25;46.25;;;;;;;;5077355;27;45223;-83
2022/03/30 02:17:29;;;;;;;;;56.75;46.25;;;;;;;;5065269;27;45286;-83
2022/03/30 02:19:55;;;;;;;;;63.75;49.75;;;;;;;;5071093;28;46176;-83
2022/03/30 02:22:22;;;;;;;;;54.75;44.75;;;;;;;;5068054;27;45433;-82
2022/03/30 02:24:47;;;;;;;;;62.25;49.25;;;;;;;;5073912;27;45455;-82
2022/03/30 02:27:12;;;;;;;;;62.50;50.25;;;;;;;;5073920;28;45358;-81
2022/03/30 02:29:37;;;;;;;;;64.50;49.00;;;;;;;;5076581;28;46279;-82
2022/03/30 02:32:03;;;;;;;;;63.00;48.00;;;;;;;;5067672;28;45417;-82
2022/03/30 02:34:28;;;;;;;;;59.00;46.00;;;;;;;;5068296;28;45804;-82
2022/03/30 02:36:53;;;;;;;;;63.50;49.00;;;;;;;;5075975;28;45541;-82
2022/03/30 02:39:19;;;;;;;;;55.00;44.50;;;;;;;;5060209;28;46250;-82
2022/03/30 02:41:45;;;;;;;;;59.00;47.50;;;;;;;;5060471;28;45374;-83
2022/03/30 02:44:12;;;;;;;;;56.25;46.25;;;;;;;;5070021;28;45573;-82
2022/03/30 02:46:38;;;;;;;;;60.75;48.00;;;;;;;;5066669;27;45402;-82
2022/03/30 02:49:03;;;;;;;;;61.75;49.75;;;;;;;;5063833;28;46244;-82
2022/03/30 02:51:29;;;;;;;;;63.00;49.75;;;;;;;;5076719;27;45405;-82
2022/03/30 02:53:55;;;;;;;;;65.75;50.25;;;;;;;;5071618;27;45436;-81
2022/03/30 02:56:20;;;;;;;;;61.50;48.25;;;;;;;;5072994;28;45581;-82
2022/03/30 02:58:45;;;;;;;;;60.00;46.25;;;;;;;;5075602;27;46118;-82
2022/03/30 03:01:11;;;;;;;;;63.00;49.00;;;;;;;;5074588;28;45502;-82
2022/03/30 03:03:36;;;;;;;;;57.75;46.00;;;;;;;;5073859;28;46423;-82
2022/03/30 03:06:01;;;;;;;;;60.00;46.00;;;;;;;;5075337;28;45351;-83
2022/03/30 03:08:26;;;;;;;;;65.50;49.00;;;;;;;;5075660;27;45996;-82
2022/03/30 03:10:52;;;;;;;;;63.25;48.75;;;;;;;;5068528;28;45523;-83
2022/03/30 03:13:17;;;;;;;;;63.75;49.75;;;;;;;;5064860;28;45413;-80
2022/03/30 03:15:43;;;;;;;;;64.50;49.25;;;;;;;;5059064;28;45484;-81
2022/03/30 03:18:08;;;;;;;;;64.00;49.00;;;;;;;;5072800;28;48297;-81
2022/03/30 03:20:34;;;;;;;;;58.25;46.25;;;;;;;;5067801;27;45893;-82
2022/03/30 03:23:02;;;;;;;;;61.50;49.75;;;;;;;;5075597;28;45476;-83
2022/03/30 03:25:29;;;;;;;;;66.50;51.25;;;;;;;;5069212;28;45249;-83
2022/03/30 03:27:54;;;;;;;;;60.00;47.25;;;;;;;;5058383;28;46544;-82
2022/03/30 03:30:20;;;;;;;;;67.25;51.75;;;;;;;;5073281;28;45535;-83
2022/03/30 03:32:45;;;;;;;;;62.00;48.75;;;;;;;;5075901;27;45539;-83
2022/03/30 03:35:11;;;;;;;;;59.25;46.75;;;;;;;;5074517;27;45560;-82
2022/03/30 03:37:37;;;;;;;;;58.75;47.50;;;;;;;;5075069;28;46250;-83
2022/03/30 03:40:03;;;;;;;;;61.25;48.50;;;;;;;;5075173;27;45428;-83
2022/03/30 03:42:28;;;;;;;;;60.25;47.25;;;;;;;;5075597;27;45424;-83
2022/03/30 03:44:54;;;;;;;;;64.00;48.00;;;;;;;;5074290;27;45466;-83
2022/03/30 03:47:19;;;;;;;;;64.25;49.25;;;;;;;;5074683;27;46380;-82
2022/03/30 03:49:44;;;;;;;;;65.75;50.75;;;;;;;;5075121;27;45210;-83
2022/03/30 03:52:10;;;;;;;;;62.75;49.50;;;;;;;;5069786;28;45471;-81
2022/03/30 03:54:35;;;;;;;;;64.25;51.25;;;;;;;;5074386;28;45365;-82
2022/03/30 03:57:01;;;;;;;;;62.50;49.75;;;;;;;;5060378;28;46160;-81
2022/03/30 03:59:26;;;;;;;;;59.50;47.25;;;;;;;;5069264;28;45456;-83
2022/03/30 04:01:51;;;;;;;;;64.00;50.67;;;;;;;;5073939;28;45478;-82
2022/03/30 04:04:17;;;;;;;;;64.00;50.50;;;;;;;;5074004;28;45422;-82
2022/03/30 04:06:42;;;;;;;;;63.25;51.00;;;;;;;;5074707;27;45422;-82
2022/03/30 04:09:07;;;;;;;;;62.00;49.25;;;;;;;;5075040;27;45347;-82
2022/03/30 04:11:33;;;;;;;;;61.25;48.75;;;;;;;;5061836;28;45439;-82
2022/03/30 04:13:58;;;;;;;;;64.25;49.25;;;;;;;;5063667;28;45330;-83
2022/03/30 04:16:23;;;;;;;;;67.50;52.25;;;;;;;;5062886;28;47385;-83
2022/03/30 04:18:49;;;;;;;;;62.50;49.75;;;;;;;;5060115;28;45323;-84
2022/03/30 04:21:14;;;;;;;;;64.75;50.25;;;;;;;;5066955;27;45340;-83
2022/03/30 04:23:39;;;;;;;;;63.75;51.75;;;;;;;;5075023;27;45612;-83
2022/03/30 04:26:04;;;;;;;;;64.75;49.75;;;;;;;;5068355;28;46119;-83
2022/03/30 04:28:30;;;;;;;;;63.50;49.25;;;;;;;;5066312;28;45400;-82
2022/03/30 04:30:55;;;;;;;;;65.25;51.50;;;;;;;;5073325;28;45522;-82
2022/03/30 04:33:20;;;;;;;;;63.00;49.75;;;;;;;;5072863;27;45330;-83
2022/03/30 04:35:45;;;;;;;;;67.00;51.50;;;;;;;;5063933;28;46148;-81
2022/03/30 04:38:11;;;;;;;;;65.75;50.00;;;;;;;;5073660;28;45508;-83
2022/03/30 04:40:36;;;;;;;;;64.25;51.50;;;;;;;;5072701;27;45507;-82
2022/03/30 04:43:01;;;;;;;;;63.33;51.33;;;;;;;;5064809;28;45359;-82
2022/03/30 04:45:27;;;;;;;;;65.25;51.25;;;;;;;;5074875;28;46693;-80
2022/03/30 04:47:54;;;;;;;;;67.00;53.67;;;;;;;;5076139;27;45401;-81
2022/03/30 04:50:20;;;;;;;;;65.75;51.00;;;;;;;;5072071;27;45300;-82
2022/03/30 04:52:45;;;;;;;;;70.00;55.00;;;;;;;;5067458;28;45483;-81
2022/03/30 04:55:11;;;;;;;;;62.33;51.00;;;;;;;;5067483;27;47288;-82
2022/03/30 04:57:36;;;;;;;;;65.00;51.25;;;;;;;;5077502;28;45473;-83
2022/03/30 05:00:02;;;;;;;;;68.67;55.00;;;;;;;;5070166;27;45648;-82
2022/03/30 05:02:28;;;;;;;;;70.33;54.67;;;;;;;;5066522;28;45595;-83
2022/03/30 05:04:53;;;;;;;;;69.33;51.33;;;;;;;;5066089;28;45662;-83
2022/03/30 05:07:18;;;;;;;;;70.67;56.00;;;;;;;;5067169;28;45312;-83
2022/03/30 05:09:44;;;;;;;;;67.75;52.50;;;;;;;;5076821;28;45312;-83
2022/03/30 05:12:09;;;;;;;;;71.00;54.67;;;;;;;;5077366;27;45365;-83
2022/03/30 05:14:35;;;;;;;;;66.25;52.00;;;;;;;;5065167;27;46867;-84
2022/03/30 05:17:00;;;;;;;;;61.33;50.33;;;;;;;;5066083;28;45320;-83
2022/03/30 05:19:25;;;;;;;;;68.00;53.00;;;;;;;;5067505;27;45397;-83
2022/03/30 05:21:51;;;;;;;;;69.00;51.67;;;;;;;;5068348;27;45375;-81
2022/03/30 05:24:16;;;;;;;;;67.33;53.33;;;;;;;;5060808;28;46299;-82
2022/03/30 05:26:41;;;;;;;;;65.50;51.25;;;;;;;;5067610;28;45333;-83
2022/03/30 05:29:06;;;;;;;;;72.00;59.00;;;;;;;;5073721;28;45300;-82
2022/03/30 05:31:32;;;;;;;;;68.00;52.25;;;;;;;;5076051;28;45308;-83
2022/03/30 05:33:57;;;;;;;;;65.00;52.25;;;;;;;;5076606;28;47252;-82
2022/03/30 05:36:22;;;;;;;;;70.00;53.00;;;;;;;;5060683;28;45394;-90
2022/03/30 05:38:48;;;;;;;;;68.33;54.33;;;;;;;;5071688;28;45462;-83
2022/03/30 05:41:14;;;;;;;;;69.67;55.00;;;;;;;;5071993;28;45615;-83
2022/03/30 05:43:39;;;;;;;;;68.00;52.00;;;;;;;;5075618;27;46897;-83
2022/03/30 05:46:05;;;;;;;;;71.33;53.67;;;;;;;;5073539;28;45452;-82
2022/03/30 05:48:33;;;;;;;;;69.00;54.00;;;;;;;;5061837;27;45302;-83
2022/03/30 05:51:01;;;;;;;;;69.00;51.00;;;;;;;;5067610;27;45284;-86
2022/03/30 05:53:36;;;;;;;;;70.33;55.00;;;;;;;;5068450;28;47074;-85
2022/03/30 05:56:02;;;;;;;;;71.00;53.00;;;;;;;;5072055;28;45506;-90
2022/03/30 05:58:27;;;;;;;;;68.00;54.00;;;;;;;;5081042;28;45251;-92
2022/03/30 06:00:52;;;;;;;;;68.33;53.00;;;;;;;;5089428;27;45261;-94
2022/03/30 06:03:17;;;;;;;;;66.67;54.00;;;;;;;;5087593;28;45947;-91
2022/03/30 06:05:43;;;;;;;;;68.67;53.33;;;;;;;;5067113;28;45406;-90
2022/03/30 06:08:09;;;;;;;;;72.33;56.00;;;;;;;;5069945;28;45473;-84
2022/03/30 06:10:34;;;;;;;;;70.33;55.33;;;;;;;;5077338;27;45516;-86
2022/03/30 06:13:00;;;;;;;;;70.67;57.33;;;;;;;;5076008;27;46274;-86
2022/03/30 06:15:26;;;;;;;;;68.67;54.00;;;;;;;;5059921;27;45302;-86
2022/03/30 06:17:51;;;;;;;;;74.25;58.00;;;;;;;;5077198;27;45477;-84
2022/03/30 06:20:17;;;;;;;;;67.00;54.00;;;;;;;;5075825;27;45452;-87
2022/03/30 06:22:42;;;;;;;;;71.25;55.50;;;;;;;;5078811;27;45230;-84
2022/03/30 06:25:09;;;;;;;;;70.33;54.67;;;;;;;;5076956;28;45294;-86
2022/03/30 06:27:35;;;;;;;;;67.00;53.00;;;;;;;;5085367;27;46076;-86
2022/03/30 06:30:01;;;;;;;;;65.00;51.00;;;;;;;;5087936;27;45420;-88
2022/03/30 06:32:26;;;;;;;;;68.67;54.67;;;;;;;;5082613;27;45447;-87
2022/03/30 06:34:51;;;;;;;;;71.00;54.67;;;;;;;;5085331;27;44863;-79
2022/03/30 06:37:16;;;;;;;;;71.33;54.33;;;;;;;;5073814;28;45500;-82
2022/03/30 06:39:42;;;;;;;;;66.00;52.00;;;;;;;;5079614;28;45272;-80
2022/03/30 06:42:07;;;;;;;;;62.00;49.00;;;;;;;;5060458;28;45572;-81
2022/03/30 06:44:32;;;;;;;;;63.00;51.00;;;;;;;;5076507;28;45448;-83
2022/03/30 06:46:58;;;;;;;;;66.00;51.25;;;;;;;;5075729;27;45347;-80
2022/03/30 06:49:24;;;;;;;;;69.33;55.00;;;;;;;;5075063;27;47960;-82
2022/03/30 06:51:52;;;;;;;;;65.75;51.50;;;;;;;;5075261;27;46916;-84
2022/03/30 06:54:17;;;;;;;;;64.50;51.25;;;;;;;;5074973;27;45626;-82
2022/03/30 06:56:42;;;;;;;;;67.67;53.67;;;;;;;;5063035;27;45387;-84
2022/03/30 06:59:08;;;;;;;;;67.67;53.00;;;;;;;;5063645;28;45532;-82
2022/03/30 07:01:34;;;;;;;;;65.25;50.75;;;;;;;;5067160;28;45467;-81
2022/03/30 07:03:59;;;;;;;;;66.50;52.25;;;;;;;;5075099;28;45290;-82
2022/03/30 07:06:24;;;;;;;;;70.00;55.00;;;;;;;;5075539;27;45551;-82
2022/03/30 07:11:34;;;;;;;;;66.67;52.00;;;;;;;;5073493;28;45693;-81
2022/03/30 07:13:59;;;;;;;;;68.67;50.33;;;;;;;;5074118;28;45465;-81
2022/03/30 07:16:25;;;;;;;;;72.67;56.33;;;;;;;;5074595;27;45440;-82
2022/03/30 07:18:50;;;;;;;;;71.00;53.33;;;;;;;;5074394;27;45566;-81
2022/03/30 07:21:16;;;;;;;;;72.00;56.50;;;;;;;;5075540;27;46082;-82
2022/03/30 07:23:41;;;;;;;;;63.67;51.33;;;;;;;;5072834;28;45586;-81
2022/03/30 07:26:06;;;;;;;;;66.67;53.00;;;;;;;;5066633;28;45390;-86
2022/03/30 07:28:31;;;;;;;;;66.00;52.00;;;;;;;;5066315;28;45421;-89
2022/03/30 07:30:57;;;;;;;;;67.00;52.67;;;;;;;;5063858;28;46446;-86
2022/03/30 07:33:23;;;;;;;;;69.00;53.00;;;;;;;;5058675;28;45325;-86
2022/03/30 07:35:49;;;;;;;;;66.25;52.00;;;;;;;;5075492;27;45365;-86
2022/03/30 07:38:18;;;;;;;;;65.25;50.50;;;;;;;;5076254;27;45290;-85
2022/03/30 07:40:45;;;;;;;;;68.00;53.33;;;;;;;;5075272;27;46459;-85
2022/03/30 07:43:12;;;;;;;;;66.67;51.33;;;;;;;;5075229;27;45405;-85
2022/03/30 07:45:37;;;;;;;;;66.75;50.25;;;;;;;;5075330;27;45452;-85
2022/03/30 07:48:03;;;;;;;;;65.75;52.00;;;;;;;;5081176;27;45373;-85
2022/03/30 07:50:28;;;;;;;;;66.25;51.75;;;;;;;;5078603;28;47808;-86
2022/03/30 07:52:53;;;;;;;;;63.00;50.00;;;;;;;;5074474;28;48566;-84
2022/03/30 07:55:19;;;;;;;;;58.75;47.50;;;;;;;;5073427;28;45427;-86
2022/03/30 07:57:44;;;;;;;;;64.50;51.00;;;;;;;;5075844;28;45439;-86
2022/03/30 08:00:11;;;;;;;;;62.50;50.00;;;;;;;;5076373;27;46878;-85
2022/03/30 08:02:37;;;;;;;;;64.00;50.75;;;;;;;;5079378;27;45369;-85
2022/03/30 08:05:02;;;;;;;;;64.00;50.75;;;;;;;;5081130;27;45285;-86
2022/03/30 08:07:30;;;;;;;;;62.00;49.75;;;;;;;;5079134;27;45212;-86
2022/03/30 08:09:55;;;;;;;;;59.00;47.33;;;;;;;;5075119;27;45416;-85
2022/03/30 08:12:21;;;;;;;;;69.50;53.50;;;;;;;;5058640;28;45382;-86
2022/03/30 08:14:47;;;;;;;;;62.00;47.00;;;;;;;;5061319;27;45343;-84
2022/03/30 08:17:12;;;;;;;;;73.00;53.50;;;;;;;;5071529;28;45518;-84
2022/03/30 08:19:38;;;;;;;;;71.00;54.50;;;;;;;;5073387;28;45442;-85
2022/03/30 08:24:47;;;;;;;;;67.50;53.00;;;;;;;;5059804;28;45356;-85
2022/03/30 08:27:14;;;;;;;;;70.00;53.25;;;;;;;;5075614;27;45298;-85
2022/03/30 08:29:39;;;;;;;;;71.33;55.33;;;;;;;;5076311;27;45801;-85
2022/03/30 08:32:05;;;;;;;;;69.75;52.50;;;;;;;;5073682;28;45445;-83
2022/03/30 08:34:30;;;;;;;;;67.00;53.00;;;;;;;;5072476;28;45295;-85
2022/03/30 08:36:55;;;;;;;;;68.33;53.67;;;;;;;;5068682;28;45448;-85
2022/03/30 08:39:20;;;;;;;;;70.67;56.00;;;;;;;;5080099;28;47093;-85
2022/03/30 08:41:46;;;;;;;;;72.00;54.00;;;;;;;;5081931;28;45386;-84
2022/03/30 08:44:17;;;;;;;;;70.00;54.00;;;;;;;;5077757;27;45285;-85
2022/03/30 08:46:45;;;;;;;;;72.33;57.00;;;;;;;;5074979;28;45346;-85
2022/03/30 08:49:10;;;;;;;;;70.67;58.33;;;;;;;;5069896;28;46300;-85
2022/03/30 08:51:39;;;;;;;;;69.33;53.33;;;;;;;;5080741;28;45335;-85
2022/03/30 08:54:05;;;;;;;;;73.00;58.67;;;;;;;;5064828;27;45296;-85
2022/03/30 08:56:31;;;;;;;;;74.67;58.33;;;;;;;;5069833;28;45373;-85
2022/03/30 08:59:07;;;;;;;;;77.67;64.67;;;;;;;;5069815;28;46896;-84
2022/03/30 09:01:36;;;;;;;;;74.67;58.67;;;;;;;;5073354;28;45334;-86
2022/03/30 09:04:03;;;;;;;;;74.00;58.33;;;;;;;;5082654;28;45160;-85
2022/03/30 09:06:49;;;;;;;;;71.33;58.00;;;;;;;;5081020;27;45506;-85
2022/03/30 09:09:15;;;;;;;;;71.67;57.00;;;;;;;;5077750;28;46834;-85
2022/03/30 09:11:52;;;;;;;;;68.33;55.33;;;;;;;;5068362;27;45450;-85
2022/03/30 09:14:19;;;;;;;;;71.67;56.33;;;;;;;;5079667;28;45349;-86
2022/03/30 09:16:46;;;;;;;;;74.67;56.00;;;;;;;;5080824;27;45527;-85
2022/03/30 09:19:12;;;;;;;;;73.00;56.00;;;;;;;;5079345;28;46063;-85
2022/03/30 09:21:41;;;;;;;;;74.00;57.33;;;;;;;;5065468;28;45448;-84
2022/03/30 09:24:06;;;;;;;;;70.00;56.67;;;;;;;;5089541;28;45267;-86
2022/03/30 09:26:32;;;;;;;;;68.67;54.33;;;;;;;;5087889;27;45507;-84
2022/03/30 09:28:57;;;;;;;;;70.00;57.67;;;;;;;;5082331;28;46617;-84
2022/03/30 09:31:22;;;;;;;;;71.67;54.67;;;;;;;;5081059;28;45444;-85
2022/03/30 09:33:48;;;;;;;;;72.67;58.67;;;;;;;;5080010;27;45340;-86
2022/03/30 09:36:27;;;;;;;;;77.33;65.00;;;;;;;;5063916;27;45323;-84
2022/03/30 09:38:52;;;;;;;;;76.33;65.67;;;;;;;;5079780;28;46553;-86
2022/03/30 09:41:18;;;;;;;;;74.67;62.67;;;;;;;;5078639;28;45555;-85
2022/03/30 09:43:43;;;;;;;;;73.33;58.33;;;;;;;;5076437;27;45705;-85
2022/03/30 09:46:09;;;;;;;;;74.33;62.00;;;;;;;;5076775;27;45504;-86
2022/03/30 09:48:38;;;;;;;;;75.33;62.00;;;;;;;;5076316;27;45443;-85
2022/03/30 09:51:06;;;;;;;;;68.00;52.67;;;;;;;;5072922;28;45378;-85
2022/03/30 09:53:32;;;;;;;;;74.00;61.67;;;;;;;;5076396;28;45406;-85
2022/03/30 09:56:07;;;;;;;;;74.00;63.33;;;;;;;;5076487;28;45343;-86
2022/03/30 09:58:34;;;;;;;;;73.00;61.00;;;;;;;;5077014;27;46570;-86
2022/03/30 10:01:03;;;;;;;;;74.00;53.25;;;;;;;;5077641;27;45397;-86
2022/03/30 10:03:37;;;;;;;;;70.33;57.00;;;;;;;;5079385;27;45291;-85
2022/03/30 10:06:03;;;;;;;;;74.67;61.00;;;;;;;;5081863;28;45487;-85
2022/03/30 10:08:29;;;;;;;;;76.00;61.67;;;;;;;;5080673;28;47279;-85
2022/03/30 10:10:54;;;;;;;;;73.00;59.67;;;;;;;;5078991;28;45347;-85
2022/03/30 10:13:19;;;;;;;;;73.33;60.00;;;;;;;;5076398;27;45772;-85
2022/03/30 10:15:45;;;;;;;;;71.33;57.00;;;;;;;;5075607;27;45484;-85
2022/03/30 10:18:10;;;;;;;;;74.00;61.00;;;;;;;;5074499;27;46507;-85
2022/03/30 10:20:35;;;;;;;;;76.75;59.25;;;;;;;;5075345;28;45467;-84
2022/03/30 10:23:08;;;;;;;;;69.50;56.00;;;;;;;;5075521;28;45324;-86
2022/03/30 10:25:52;;;;;;;;;65.75;51.75;;;;;;;;5071940;27;45418;-85
2022/03/30 10:28:20;;;;;;;;;65.75;52.75;;;;;;;;5065687;28;47090;-85
2022/03/30 10:30:50;;;;;;;;;70.75;53.75;;;;;;;;5075954;28;45331;-85
2022/03/30 10:33:27;;;;;;;;;65.50;50.50;;;;;;;;5077214;27;45990;-86
2022/03/30 10:35:52;;;;;;;;;72.75;54.00;;;;;;;;5075786;28;45511;-86
2022/03/30 10:38:18;;;;;;;;;65.75;51.25;;;;;;;;5066689;28;46480;-85
2022/03/30 10:40:44;;;;;;;;;67.75;50.25;;;;;;;;5070938;28;45275;-85
2022/03/30 10:43:10;;;;;;;;;75.00;56.25;;;;;;;;5079084;27;45513;-85
2022/03/30 10:45:55;;;;;;;;;70.00;52.00;;;;;;;;5082272;27;45311;-85
2022/03/30 10:48:20;;;;;;;;;72.00;55.00;;;;;;;;5079271;28;45071;-86
2022/03/30 10:50:56;;;;;;;;;68.00;54.00;;;;;;;;5076335;27;45350;-85
2022/03/30 10:53:38;;;;;;;;;71.50;55.00;;;;;;;;5075287;27;45596;-85
2022/03/30 10:56:09;;;;;;;;;67.50;52.50;;;;;;;;5067214;28;45434;-86
2022/03/30 10:59:00;;;;;;;;;68.00;54.50;;;;;;;;5067256;28;47132;-86
2022/03/30 11:01:28;;;;;;;;;69.75;51.75;;;;;;;;5073187;27;45346;-86
2022/03/30 11:04:00;;;;;;;;;69.25;54.75;;;;;;;;5062241;28;45501;-86
2022/03/30 11:06:26;;;;;;;;;61.25;48.25;;;;;;;;5059872;27;45469;-86
2022/03/30 11:08:51;;;;;;;;;64.25;50.50;;;;;;;;5061567;27;46328;-85
2022/03/30 11:11:26;;;;;;;;;73.00;57.50;;;;;;;;5072892;28;45588;-85
2022/03/30 11:14:10;;;;;;;;;65.75;51.50;;;;;;;;5074451;28;45393;-84
2022/03/30 11:16:51;;;;;;;;;65.00;51.00;;;;;;;;5074446;28;45273;-84
2022/03/30 11:19:16;;;;;;;;;67.75;54.00;;;;;;;;5073877;27;46219;-85
2022/03/30 11:21:54;;;;;;;;;65.00;50.25;;;;;;;;5074765;27;45395;-84
2022/03/30 11:24:22;;;;;;;;;64.50;49.50;;;;;;;;5081861;27;45437;-85
2022/03/30 11:26:48;;;;;;;;;68.00;53.50;;;;;;;;5078651;27;45328;-86
2022/03/30 11:29:39;;;;;;;;;64.25;49.75;;;;;;;;5073488;27;45445;-88
2022/03/30 11:32:23;;;;;;;;;61.00;48.25;;;;;;;;5035124;28;45464;-87
2022/03/30 11:34:52;;;;;;;;;64.25;50.50;;;;;;;;5027968;28;45537;-87
2022/03/30 11:37:25;;;;;;;;;67.25;50.75;;;;;;;;5023210;28;45477;-88
2022/03/30 11:39:50;;;;;;;;;58.75;45.75;;;;;;;;5037310;28;46718;-88
2022/03/30 11:42:16;;;;;;;;;62.25;49.25;;;;;;;;5034529;28;48027;-88
2022/03/30 11:47:25;;;;;;;;;60.50;47.00;;;;;;;;5020937;28;45415;-89
2022/03/30 11:49:54;;;;;;;;;55.50;47.00;;;;;;;;5026234;28;46193;-87
2022/03/30 11:52:20;;;;;;;;;58.50;44.75;;;;;;;;5034087;28;45266;-87
2022/03/30 11:54:52;;;;;;;;;56.00;44.00;;;;;;;;5038595;28;45215;-89
2022/03/30 11:57:18;;;;;;;;;52.25;41.00;;;;;;;;5035726;28;45636;-86
2022/03/30 11:59:52;;;;;;;;;53.75;43.50;;;;;;;;5033791;28;47285;-83
2022/03/30 12:02:18;;;;;;;;;64.75;48.25;;;;;;;;5025286;28;45548;-81
2022/03/30 12:04:44;;;;;;;;;61.00;47.00;;;;;;;;5030055;28;45368;-82
2022/03/30 12:07:13;;;;;;;;;57.75;45.25;;;;;;;;5023244;28;45426;-82
2022/03/30 12:09:45;;;;;;;;;53.25;43.25;;;;;;;;5051451;28;46744;-83
2022/03/30 12:12:11;;;;;;;;;54.50;44.00;;;;;;;;5066903;27;45587;-83
2022/03/30 12:14:36;;;;;;;;;54.25;44.50;;;;;;;;5064893;27;45384;-82
2022/03/30 12:17:04;;;;;;;;;49.25;42.00;;;;;;;;5064608;28;46238;-82
2022/03/30 12:19:29;;;;;;;;;56.25;43.25;;;;;;;;5059986;28;45964;-82
2022/03/30 12:21:54;;;;;;;;;51.75;42.25;;;;;;;;5065279;28;45496;-85
2022/03/30 12:24:31;;;;;;;;;52.50;42.50;;;;;;;;5056998;28;45395;-83
2022/03/30 12:26:58;;;;;;;;;41.50;35.75;;;;;;;;5073336;28;45595;-84
2022/03/30 12:29:29;;;;;;;;;49.75;40.00;;;;;;;;5065228;28;46227;-84
2022/03/30 12:31:57;;;;;;;;;43.25;31.25;;;;;;;;5063494;28;45460;-82
2022/03/30 12:34:25;;;;;;;;;54.00;42.50;;;;;;;;5067829;28;45547;-81
2022/03/30 12:36:58;;;;;;;;;50.75;43.25;;;;;;;;5072880;27;45419;-83
2022/03/30 12:39:25;;;;;;;;;56.00;44.25;;;;;;;;5073111;27;46704;-82
2022/03/30 12:41:57;;;;;;;;;54.50;43.50;;;;;;;;5075467;27;45451;-80
2022/03/30 12:44:23;;;;;;;;;52.75;41.75;;;;;;;;5065820;27;45448;-81
2022/03/30 12:46:51;;;;;;;;;51.25;41.50;;;;;;;;5068338;28;45491;-83
2022/03/30 12:49:17;;;;;;;;;52.75;42.25;;;;;;;;5071615;27;46980;-82
2022/03/30 12:51:42;;;;;;;;;52.25;42.75;;;;;;;;5070883;28;45402;-83
2022/03/30 12:54:19;;;;;;;;;50.50;40.00;;;;;;;;5057656;28;45445;-82
2022/03/30 12:56:45;;;;;;;;;51.00;39.75;;;;;;;;5062429;27;45456;-81
2022/03/30 12:59:17;;;;;;;;;55.75;44.50;;;;;;;;5059846;27;47382;-82
2022/03/30 13:01:49;;;;;;;;;50.50;41.75;;;;;;;;5063579;28;45507;-81
2022/03/30 13:04:26;;;;;;;;;52.50;42.00;;;;;;;;5059602;28;45353;-82
2022/03/30 13:07:05;;;;;;;;;52.00;40.75;;;;;;;;5071239;27;45576;-81
2022/03/30 13:09:30;;;;;;;;;54.50;42.25;;;;;;;;5071736;27;46195;-81
2022/03/30 13:11:57;;;;;;;;;46.00;38.50;;;;;;;;5063258;28;45313;-81
2022/03/30 13:14:22;;;;;;;;;54.50;43.00;;;;;;;;5070843;28;45410;-82
2022/03/30 13:17:10;;;;;;;;;49.50;37.75;;;;;;;;5065963;27;45508;-81
2022/03/30 13:19:36;;;;;;;;;52.25;40.50;;;;;;;;5064461;28;46320;-81
2022/03/30 13:22:04;;;;;;;;;41.50;35.75;;;;;;;;5075899;27;45485;-81
2022/03/30 13:24:32;;;;;;;;;56.50;42.25;;;;;;;;5072681;28;45422;-82
2022/03/30 13:27:00;;;;;;;;;44.75;38.00;;;;;;;;5070971;28;45407;-81
2022/03/30 13:29:26;;;;;;;;;42.25;33.50;;;;;;;;5063928;28;46061;-81
2022/03/30 13:31:51;;;;;;;;;37.00;33.67;;;;;;;;5067996;28;45425;-81
2022/03/30 13:34:18;;;;;;;;;47.00;37.25;;;;;;;;5073246;27;45488;-81
2022/03/30 13:36:44;;;;;;;;;41.75;35.00;;;;;;;;5065197;28;45542;-81
2022/03/30 13:39:10;;;;;;;;;44.50;37.50;;;;;;;;5073301;27;46090;-82
2022/03/30 13:41:35;;;;;;;;;39.75;34.50;;;;;;;;5070285;27;45469;-81
2022/03/30 13:44:00;;;;;;;;;46.00;37.00;;;;;;;;5070823;28;45464;-81
2022/03/30 13:46:26;;;;;;;;;38.50;32.75;;;;;;;;5075756;27;45479;-82
2022/03/30 13:48:52;;;;;;;;;49.25;40.25;;;;;;;;5073633;28;47288;-81
2022/03/30 13:51:18;;;;;;;;;45.75;36.75;;;;;;;;5061248;27;45595;-80
2022/03/30 13:53:43;;;;;;;;;48.00;34.50;;;;;;;;5079331;27;45499;-81
2022/03/30 13:56:13;;;;;;;;;50.75;41.75;;;;;;;;5077188;28;45493;-81
2022/03/30 13:58:38;;;;;;;;;50.00;38.75;;;;;;;;5073435;28;47673;-81
2022/03/30 14:01:05;;;;;;;;;45.50;35.00;;;;;;;;5068633;28;45345;-81
2022/03/30 14:03:32;;;;;;;;;43.25;33.25;;;;;;;;5067878;28;45252;-82
2022/03/30 14:05:58;;;;;;;;;33.00;31.75;;;;;;;;5073442;27;45649;-86
2022/03/30 14:08:23;;;;;;;;;37.50;33.25;;;;;;;;5072482;28;45523;-86
2022/03/30 14:10:49;;;;;;;;;43.25;33.75;;;;;;;;5069258;27;45302;-85
2022/03/30 14:13:15;;;;;;;;;37.75;33.25;;;;;;;;5065534;28;45263;-85
2022/03/30 14:15:40;;;;;;;;;39.75;33.00;;;;;;;;5073407;27;45473;-86
2022/03/30 14:18:08;;;;;;;;;42.25;32.75;;;;;;;;5070609;28;45369;-86
2022/03/30 14:20:33;;;;;;;;;41.00;32.50;;;;;;;;5063953;28;45477;-86
2022/03/30 14:22:58;;;;;;;;;39.75;35.00;;;;;;;;5068189;28;45516;-84
2022/03/30 14:25:24;;;;;;;;;36.25;31.75;;;;;;;;5068641;28;45392;-87